Home > Products > Valid Products > TAF

000
FTUS44 KMRX 062326
TAFCHA
TAF
KCHA 062326Z 0700/0724 36003KT P6SM SCT120 BKN250
     FM070600 00000KT P6SM SKC
     FM071800 26006KT P6SM BKN250=



000
FTUS44 KMRX 062326
TAFTRI
TAF
KTRI 062326Z 0700/0724 00000KT P6SM SCT120 OVC250
     FM070800 00000KT P6SM SKC
     FM071800 28005KT P6SM BKN250=



000
FTUS44 KMRX 062326
TAFTYS
TAF
KTYS 062326Z 0700/0724 VRB03KT P6SM BKN250
     FM070800 VRB03KT P6SM SKC
     FM071800 26005KT P6SM BKN250=



000
FTUS44 KMRX 061720
TAFTRI
TAF
KTRI 061720Z 0618/0718 00000KT P6SM OVC250
     FM070800 00000KT P6SM SKC=



000
FTUS44 KMRX 061720
TAFTYS
TAF
KTYS 061720Z 0618/0718 35003KT P6SM BKN250
     FM070800 00000KT P6SM SKC=



000
FTUS44 KMRX 061720
TAFCHA
TAF
KCHA 061720Z 0618/0718 36003KT P6SM BKN250
     FM070600 00000KT P6SM SKC=



000
FTUS44 KMRX 061124
TAFCHA
TAF
KCHA 061124Z 0612/0712 VRB03KT P6SM SCT250
     FM061700 36004KT P6SM OVC250
     FM070600 00000KT P6SM SKC=



000
FTUS44 KMRX 061124
TAFTRI
TAF
KTRI 061124Z 0612/0712 36003KT P6SM BKN250
     FM061800 26004KT P6SM OVC250
     FM070800 00000KT P6SM SKC=



000
FTUS44 KMRX 061124
TAFCHA
TAF
KCHA 061124Z 0612/0712 VRB03KT P6SM SCT250
     FM061700 36004KT P6SM OVC250
     FM070600 00000KT P6SM SKC=



000
FTUS44 KMRX 061124
TAFTRI
TAF
KTRI 061124Z 0612/0712 36003KT P6SM BKN250
     FM061800 26004KT P6SM OVC250
     FM070800 00000KT P6SM SKC=



000
FTUS44 KMRX 061124
TAFTYS
TAF
KTYS 061124Z 0612/0712 VRB04KT P6SM BKN250
     FM061800 33004KT P6SM OVC250
     FM070800 00000KT P6SM SKC=



000
FTUS44 KMRX 061124
TAFCHA
TAF
KCHA 061124Z 0612/0712 VRB03KT P6SM SCT250
     FM061700 36004KT P6SM OVC250
     FM070600 00000KT P6SM SKC=



000
FTUS44 KMRX 061124
TAFTYS
TAF
KTYS 061124Z 0612/0712 VRB04KT P6SM BKN250
     FM061800 33004KT P6SM OVC250
     FM070800 00000KT P6SM SKC=



000
FTUS44 KMRX 061124
TAFTRI
TAF
KTRI 061124Z 0612/0712 36003KT P6SM BKN250
     FM061800 26004KT P6SM OVC250
     FM070800 00000KT P6SM SKC=



000
FTUS44 KMRX 061124
TAFTYS
TAF
KTYS 061124Z 0612/0712 VRB04KT P6SM BKN250
     FM061800 33004KT P6SM OVC250
     FM070800 00000KT P6SM SKC=



000
FTUS44 KMRX 060525
TAFCHA
TAF
KCHA 060525Z 0606/0706 VRB03KT P6SM SCT250
     FM061800 36004KT P6SM OVC250=



000
FTUS44 KMRX 060525
TAFTYS
TAF
KTYS 060525Z 0606/0706 VRB04KT P6SM BKN250
     FM061800 28004KT P6SM OVC250=



000
FTUS44 KMRX 060525
TAFTRI
TAF
KTRI 060525Z 0606/0706 36003KT P6SM BKN250
     FM061800 26004KT P6SM OVC250=



000
FTUS44 KMRX 052333
TAFTRI
TAF
KTRI 052333Z 0600/0624 36003KT P6SM BKN250
     FM061800 26004KT P6SM OVC250=



000
FTUS44 KMRX 052333
TAFTYS
TAF
KTYS 052333Z 0600/0624 VRB04KT P6SM BKN250
     FM061800 28004KT P6SM OVC250=



000
FTUS44 KMRX 052333
TAFTRI
TAF
KTRI 052333Z 0600/0624 36003KT P6SM BKN250
     FM061800 26004KT P6SM OVC250=



000
FTUS44 KMRX 052333
TAFTYS
TAF
KTYS 052333Z 0600/0624 VRB04KT P6SM BKN250
     FM061800 28004KT P6SM OVC250=



000
FTUS44 KMRX 052333
TAFCHA
TAF
KCHA 052333Z 0600/0624 VRB03KT P6SM SCT250
     FM061800 36004KT P6SM OVC250=



000
FTUS44 KMRX 052333
TAFCHA
TAF
KCHA 052333Z 0600/0624 VRB03KT P6SM SCT250
     FM061800 36004KT P6SM OVC250=



000
FTUS44 KMRX 052333
TAFCHA
TAF
KCHA 052333Z 0600/0624 VRB03KT P6SM SCT250
     FM061800 36004KT P6SM OVC250=



000
FTUS44 KMRX 052333
TAFTRI
TAF
KTRI 052333Z 0600/0624 36003KT P6SM BKN250
     FM061800 26004KT P6SM OVC250=



000
FTUS44 KMRX 052333
TAFTYS
TAF
KTYS 052333Z 0600/0624 VRB04KT P6SM BKN250
     FM061800 28004KT P6SM OVC250=



000
FTUS44 KMRX 051720
TAFCHA
TAF
KCHA 051720Z 0518/0618 02007KT P6SM SKC=



000
FTUS44 KMRX 051720
TAFTYS
TAF
KTYS 051720Z 0518/0618 02007KT P6SM FEW250
     FM060100 00000KT P6SM SKC=



000
FTUS44 KMRX 051720
TAFTRI
TAF
KTRI 051720Z 0518/0618 30007KT P6SM FEW050
     FM060100 00000KT P6SM SCT250=



000
FTUS44 KMRX 051720
TAFTRI
TAF
KTRI 051720Z 0518/0618 30007KT P6SM FEW050
     FM060100 00000KT P6SM SCT250=



000
FTUS44 KMRX 051720
TAFTYS
TAF
KTYS 051720Z 0518/0618 02007KT P6SM FEW250
     FM060100 00000KT P6SM SKC=



000
FTUS44 KMRX 051720
TAFCHA
TAF
KCHA 051720Z 0518/0618 02007KT P6SM SKC=



000
FTUS44 KMRX 051720
TAFTRI
TAF
KTRI 051720Z 0518/0618 30007KT P6SM FEW050
     FM060100 00000KT P6SM SCT250=



000
FTUS44 KMRX 051720
TAFTYS
TAF
KTYS 051720Z 0518/0618 02007KT P6SM FEW250
     FM060100 00000KT P6SM SKC=



000
FTUS44 KMRX 051720
TAFCHA
TAF
KCHA 051720Z 0518/0618 02007KT P6SM SKC=



000
FTUS44 KMRX 051120
TAFTRI
TAF
KTRI 051120Z 0512/0612 30007KT P6SM SCT050
     FM060100 00000KT P6SM SCT250=



000
FTUS44 KMRX 051120
TAFTYS
TAF
KTYS 051120Z 0512/0612 02007KT P6SM SKC
     FM060100 00000KT P6SM SKC=



000
FTUS44 KMRX 051120
TAFCHA
TAF
KCHA 051120Z 0512/0612 02007KT P6SM SKC
     FM051400 02006KT P6SM SKC=



000
FTUS44 KMRX 051120
TAFCHA
TAF
KCHA 051120Z 0512/0612 02007KT P6SM SKC
     FM051400 02006KT P6SM SKC=



000
FTUS44 KMRX 051120
TAFTRI
TAF
KTRI 051120Z 0512/0612 30007KT P6SM SCT050
     FM060100 00000KT P6SM SCT250=



000
FTUS44 KMRX 051120
TAFTYS
TAF
KTYS 051120Z 0512/0612 02007KT P6SM SKC
     FM060100 00000KT P6SM SKC=



000
FTUS44 KMRX 051120
TAFTYS
TAF
KTYS 051120Z 0512/0612 02007KT P6SM SKC
     FM060100 00000KT P6SM SKC=



000
FTUS44 KMRX 051120
TAFTRI
TAF
KTRI 051120Z 0512/0612 30007KT P6SM SCT050
     FM060100 00000KT P6SM SCT250=



000
FTUS44 KMRX 051120
TAFCHA
TAF
KCHA 051120Z 0512/0612 02007KT P6SM SKC
     FM051400 02006KT P6SM SKC=



000
FTUS44 KMRX 050520
TAFTYS
TAF
KTYS 050520Z 0506/0606 35008KT P6SM BKN050
     FM051000 35006KT P6SM SCT050
     FM051400 02006KT P6SM SCT250
     FM060100 00000KT P6SM SKC=



000
FTUS44 KMRX 050520
TAFTRI
TAF
KTRI 050520Z 0506/0606 26005KT P6SM FEW025 OVC050
      TEMPO 0508/0512 6SM BR OVC025
     FM051400 30007KT P6SM SCT080
     FM060100 00000KT P6SM SCT250=



000
FTUS44 KMRX 050520
TAFCHA
TAF
KCHA 050520Z 0506/0606 34007KT P6SM SKC
     FM051400 02006KT P6SM SKC=



000
FTUS44 KMRX 050358 AAC
TAFTYS
TAF AMD
KTYS 050358Z 0504/0524 35008KT P6SM BKN050
     FM050800 33006KT P6SM SCT050
     FM051400 04006KT P6SM SCT250=



000
FTUS44 KMRX 050327 AAB
TAFTYS
TAF AMD
KTYS 050327Z 0503/0524 35010G16KT P6SM BKN050
     FM050800 33006KT P6SM SCT050
     FM051400 04006KT P6SM SCT250=



000
FTUS44 KMRX 050327 AAB
TAFTYS
TAF AMD
KTYS 050327Z 0503/0524 35010G16KT P6SM BKN050
     FM050800 33006KT P6SM SCT050
     FM051400 04006KT P6SM SCT250=



000
FTUS44 KMRX 050327 AAB
TAFTYS
TAF AMD
KTYS 050327Z 0503/0524 35010G16KT P6SM BKN050
     FM050800 33006KT P6SM SCT050
     FM051400 04006KT P6SM SCT250=



000
FTUS44 KMRX 050203 AAB
TAFCHA
TAF AMD
KCHA 050203Z 0502/0524 32011KT P6SM FEW050
     FM050400 34007KT P6SM SKC
     FM051400 02006KT P6SM SKC=



000
FTUS44 KMRX 050203 AAB
TAFCHA
TAF AMD
KCHA 050203Z 0502/0524 32011KT P6SM FEW050
     FM050400 34007KT P6SM SKC
     FM051400 02006KT P6SM SKC=



000
FTUS44 KMRX 050203 AAB
TAFCHA
TAF AMD
KCHA 050203Z 0502/0524 32011KT P6SM FEW050
     FM050400 34007KT P6SM SKC
     FM051400 02006KT P6SM SKC=



000
FTUS44 KMRX 050057 AAA
TAFCHA
TAF AMD
KCHA 050057Z 0501/0524 32014G20KT P6SM SCT050
     FM050200 32010KT P6SM SCT050
     FM050400 34007KT P6SM SKC
     FM051400 02006KT P6SM SKC=



000
FTUS44 KMRX 050057 AAA
TAFCHA
TAF AMD
KCHA 050057Z 0501/0524 32014G20KT P6SM SCT050
     FM050200 32010KT P6SM SCT050
     FM050400 34007KT P6SM SKC
     FM051400 02006KT P6SM SKC=



000
FTUS44 KMRX 050057 AAA
TAFCHA
TAF AMD
KCHA 050057Z 0501/0524 32014G20KT P6SM SCT050
     FM050200 32010KT P6SM SCT050
     FM050400 34007KT P6SM SKC
     FM051400 02006KT P6SM SKC=



000
FTUS44 KMRX 050057 AAA
TAFTYS
TAF AMD
KTYS 050057Z 0501/0524 33010KT P6SM FEW050
     FM050800 33006KT P6SM SKC
     FM051400 04006KT P6SM SCT250=



000
FTUS44 KMRX 050057 AAA
TAFTYS
TAF AMD
KTYS 050057Z 0501/0524 33010KT P6SM FEW050
     FM050800 33006KT P6SM SKC
     FM051400 04006KT P6SM SCT250=



000
FTUS44 KMRX 050057 AAA
TAFTYS
TAF AMD
KTYS 050057Z 0501/0524 33010KT P6SM FEW050
     FM050800 33006KT P6SM SKC
     FM051400 04006KT P6SM SCT250=



000
FTUS44 KMRX 042329
TAFCHA
TAF
KCHA 042329Z 0500/0524 33011KT P6SM SCT050
     FM050400 34007KT P6SM SKC
     FM051400 02006KT P6SM SKC=



000
FTUS44 KMRX 042329
TAFTRI
TAF
KTRI 042329Z 0500/0524 26007KT P6SM FEW025 OVC050
      TEMPO 0508/0512 4SM BR OVC025
     FM051400 30007KT P6SM SCT080=



000
FTUS44 KMRX 042329
TAFTRI
TAF
KTRI 042329Z 0500/0524 26007KT P6SM FEW025 OVC050
      TEMPO 0508/0512 4SM BR OVC025
     FM051400 30007KT P6SM SCT080=



000
FTUS44 KMRX 042329
TAFCHA
TAF
KCHA 042329Z 0500/0524 33011KT P6SM SCT050
     FM050400 34007KT P6SM SKC
     FM051400 02006KT P6SM SKC=



000
FTUS44 KMRX 042329
TAFCHA
TAF
KCHA 042329Z 0500/0524 33011KT P6SM SCT050
     FM050400 34007KT P6SM SKC
     FM051400 02006KT P6SM SKC=



000
FTUS44 KMRX 042329
TAFTYS
TAF
KTYS 042329Z 0500/0524 02006KT P6SM FEW050
     FM050800 33006KT P6SM SKC
     FM051400 04006KT P6SM SCT250=



000
FTUS44 KMRX 042329
TAFTYS
TAF
KTYS 042329Z 0500/0524 02006KT P6SM FEW050
     FM050800 33006KT P6SM SKC
     FM051400 04006KT P6SM SCT250=



000
FTUS44 KMRX 042329
TAFTYS
TAF
KTYS 042329Z 0500/0524 02006KT P6SM FEW050
     FM050800 33006KT P6SM SKC
     FM051400 04006KT P6SM SCT250=



000
FTUS44 KMRX 042329
TAFTRI
TAF
KTRI 042329Z 0500/0524 26007KT P6SM FEW025 OVC050
      TEMPO 0508/0512 4SM BR OVC025
     FM051400 30007KT P6SM SCT080=



000
FTUS44 KMRX 042305 AAA
TAFCHA
TAF AMD
KCHA 042305Z 0423/0518 33010KT P6SM SCT050
     FM050000 33009KT P6SM BKN100
     FM050600 34008KT P6SM BKN250=



000
FTUS44 KMRX 042305 AAA
TAFCHA
TAF AMD
KCHA 042305Z 0423/0518 33010KT P6SM SCT050
     FM050000 33009KT P6SM BKN100
     FM050600 34008KT P6SM BKN250=



000
FTUS44 KMRX 042305 AAA
TAFCHA
TAF AMD
KCHA 042305Z 0423/0518 33010KT P6SM SCT050
     FM050000 33009KT P6SM BKN100
     FM050600 34008KT P6SM BKN250=



000
FTUS44 KMRX 041720
TAFTYS
TAF
KTYS 041720Z 0418/0518 34008KT P6SM OVC050
     FM050800 33006KT P6SM SKC=



000
FTUS44 KMRX 041720
TAFTRI
TAF
KTRI 041720Z 0418/0518 30007KT P6SM OVC050
     FM050400 31008KT P6SM OVC025
     FM051000 28008KT P6SM BKN100=



000
FTUS44 KMRX 041720
TAFCHA
TAF
KCHA 041720Z 0418/0518 35010KT P6SM BKN050
     FM050000 33009KT P6SM BKN100
     FM050600 34008KT P6SM BKN250=



000
FTUS44 KMRX 041138
TAFTRI
TAF
KTRI 041138Z 0412/0512 30006KT P6SM SCT025 OVC050
      TEMPO 0412/0415 OVC025
     FM041500 30006KT P6SM OVC025
     FM041800 30007KT P6SM BKN050
     FM050000 31008KT P6SM OVC030
     FM051000 28008KT P6SM BKN100=



000
FTUS44 KMRX 041138
TAFCHA
TAF
KCHA 041138Z 0412/0512 35007KT P6SM SCT250
     FM041400 35010KT P6SM SCT050
     FM050100 33009KT P6SM SKC
     FM050600 34008KT P6SM BKN250=



000
FTUS44 KMRX 041138
TAFCHA
TAF
KCHA 041138Z 0412/0512 35007KT P6SM SCT250
     FM041400 35010KT P6SM SCT050
     FM050100 33009KT P6SM SKC
     FM050600 34008KT P6SM BKN250=



000
FTUS44 KMRX 041138
TAFTRI
TAF
KTRI 041138Z 0412/0512 30006KT P6SM SCT025 OVC050
      TEMPO 0412/0415 OVC025
     FM041500 30006KT P6SM OVC025
     FM041800 30007KT P6SM BKN050
     FM050000 31008KT P6SM OVC030
     FM051000 28008KT P6SM BKN100=



000
FTUS44 KMRX 041138
TAFTYS
TAF
KTYS 041138Z 0412/0512 30005KT P6SM OVC035
     FM041500 34008KT P6SM BKN050
     FM050100 33009KT P6SM BKN060
     FM050600 33006KT P6SM BKN250=



000
FTUS44 KMRX 041138
TAFTYS
TAF
KTYS 041138Z 0412/0512 30005KT P6SM OVC035
     FM041500 34008KT P6SM BKN050
     FM050100 33009KT P6SM BKN060
     FM050600 33006KT P6SM BKN250=



000
FTUS44 KMRX 041138
TAFTYS
TAF
KTYS 041138Z 0412/0512 30005KT P6SM OVC035
     FM041500 34008KT P6SM BKN050
     FM050100 33009KT P6SM BKN060
     FM050600 33006KT P6SM BKN250=



000
FTUS44 KMRX 041138
TAFCHA
TAF
KCHA 041138Z 0412/0512 35007KT P6SM SCT250
     FM041400 35010KT P6SM SCT050
     FM050100 33009KT P6SM SKC
     FM050600 34008KT P6SM BKN250=



000
FTUS44 KMRX 041138
TAFTRI
TAF
KTRI 041138Z 0412/0512 30006KT P6SM SCT025 OVC050
      TEMPO 0412/0415 OVC025
     FM041500 30006KT P6SM OVC025
     FM041800 30007KT P6SM BKN050
     FM050000 31008KT P6SM OVC030
     FM051000 28008KT P6SM BKN100=



000
FTUS44 KMRX 040540
TAFTRI
TAF
KTRI 040540Z 0406/0506 VRB03KT P6SM SCT025 BKN250
      TEMPO 0408/0412 4SM BR OVC022
     FM041200 28006KT P6SM OVC040
     FM041800 27006KT P6SM BKN050
     FM050000 29008KT P6SM BKN050=



000
FTUS44 KMRX 040540
TAFCHA
TAF
KCHA 040540Z 0406/0506 VRB04KT P6SM SCT250
      TEMPO 0408/0412 BKN040
     FM041400 35010KT P6SM SCT050
     FM050100 00000KT P6SM SKC=



000
FTUS44 KMRX 040540
TAFTYS
TAF
KTYS 040540Z 0406/0506 30005KT P6SM SCT040
      TEMPO 0408/0412 OVC040
     FM041500 35008KT P6SM BKN050
     FM050100 32007KT P6SM BKN250=



000
FTUS44 KMRX 040540
TAFTYS
TAF
KTYS 040540Z 0406/0506 30005KT P6SM SCT040
      TEMPO 0408/0412 OVC040
     FM041500 35008KT P6SM BKN050
     FM050100 32007KT P6SM BKN250=



000
FTUS44 KMRX 040540
TAFTRI
TAF
KTRI 040540Z 0406/0506 VRB03KT P6SM SCT025 BKN250
      TEMPO 0408/0412 4SM BR OVC022
     FM041200 28006KT P6SM OVC040
     FM041800 27006KT P6SM BKN050
     FM050000 29008KT P6SM BKN050=



000
FTUS44 KMRX 040540
TAFCHA
TAF
KCHA 040540Z 0406/0506 VRB04KT P6SM SCT250
      TEMPO 0408/0412 BKN040
     FM041400 35010KT P6SM SCT050
     FM050100 00000KT P6SM SKC=



000
FTUS44 KMRX 040540
TAFTRI
TAF
KTRI 040540Z 0406/0506 VRB03KT P6SM SCT025 BKN250
      TEMPO 0408/0412 4SM BR OVC022
     FM041200 28006KT P6SM OVC040
     FM041800 27006KT P6SM BKN050
     FM050000 29008KT P6SM BKN050=



000
FTUS44 KMRX 040540
TAFCHA
TAF
KCHA 040540Z 0406/0506 VRB04KT P6SM SCT250
      TEMPO 0408/0412 BKN040
     FM041400 35010KT P6SM SCT050
     FM050100 00000KT P6SM SKC=



000
FTUS44 KMRX 040540
TAFTYS
TAF
KTYS 040540Z 0406/0506 30005KT P6SM SCT040
      TEMPO 0408/0412 OVC040
     FM041500 35008KT P6SM BKN050
     FM050100 32007KT P6SM BKN250=



000
FTUS44 KMRX 040139 AAA
TAFTRI
TAF AMD
KTRI 040139Z 0402/0424 22008KT P6SM SCT016 OVC035
      TEMPO 0402/0406 4SM BR SCT002 OVC016
     FM040600 25004KT 4SM BR OVC016
     FM041400 28006KT P6SM OVC050=



000
FTUS44 KMRX 040139 AAA
TAFTRI
TAF AMD
KTRI 040139Z 0402/0424 22008KT P6SM SCT016 OVC035
      TEMPO 0402/0406 4SM BR SCT002 OVC016
     FM040600 25004KT 4SM BR OVC016
     FM041400 28006KT P6SM OVC050=



    US Dept of Commerce
    National Oceanic and Atmospheric Administration
    National Weather Service
    1325 East West Highway
    Silver Spring, MD 20910
    Page Author: NWS Internet Services Team
Disclaimer
Information Quality
Credits
Glossary
Privacy Policy
Freedom of Information Act (FOIA)
About Us
Career Opportunities